Fort Campbell, TN

10:38 AM CDT on May 25, 2015 (GMT -0500)
Campbell Army Air Field | | Change Station
CLOSE
Current Station
Airport
Location: Fort Campbell,
Elevation: 571 ft
Nearby Weather Stations

Elev 571 ft 36.67 °N, 87.50 °W | Updated 6 minutes ago

Rain
Rain
70 °F
Feels Like 70 °F
N
10
Wind Variable Wind from SSE

Today
High -- | Low -- °F
--% Chance of Precip.
Yesterday
High -- | Low -- °F
Precip. -- in
5:35 AM 7:57 PM
Waxing Crescent, 49% visible
Pressure 30.15 in
Visibility 10.0 miles
Clouds Mostly Cloudy 700 ft
Mostly Cloudy 6500 ft
Dew Point 68 °F
Humidity 94%
Rainfall 0.95 in
Snow Depth Not available.
UV 5 out of 12
Pollen 3.20 out of 12
Air Quality Not available.
Flu Activity Sporadic
SPECI KHOP 251532Z AUTO 15009KT 10SM -DZ BKN007 BKN065 21/20 A3015 RMK AO2 CIG 007V013 BKN007 V FEW

More Conditions Fewer Conditions

Pressure 30.15 in
Visibility 10.0 miles
Clouds Mostly Cloudy 700 ft
Mostly Cloudy 6500 ft
Dew Point 68 °F
Humidity 94%
Rainfall 0.95 in
Snow Depth Not available.
UV 5 out of 12
Pollen 3.20 out of 12
Air Quality Not available.
Flu Activity Sporadic
SPECI KHOP 251532Z AUTO 15009KT 10SM -DZ BKN007 BKN065 21/20 A3015 RMK AO2 CIG 007V013 BKN007 V FEW

More Conditions Fewer Conditions

10-Day Weather Forecast

Almanac

Astronomy

May. 25, 2015 Rise Set
Actual Time
Civil Twilight
Nautical Twilight
Astronomical Twilight
Moon
Length of Visible Light
Length of Day
Tomorrow will be .
, % of the Moon is Illuminated

Today's Extremes

State Highs State Lows

Community

WunderPhotos

Upload Photos

1,824,030 photos uploaded!

WunderBlogs® & News

Nearby

Air Quality

  Air Quality AQ Index Pollutant
Not available.

Snow Depth

Station Depth Elevation

Earthquake Activity

City Distance Mag. Time & Date
Minimum magnitude displayed is 2.5.

Coastal Water Temperatures

Place Temperature

Stations

Nearby Weather Stations

Station Location Temp. Windchill Dew Point Humidity Wind Precip. Elev Updated Type